sensor_id;sensor_type;location;lat;lon;timestamp;temperature;humidity
16116;DHT22;8162;47.104;15.432;2022-08-20T00:00:49;20.10;90.10
16116;DHT22;8162;47.104;15.432;2022-08-20T00:03:21;20.10;90.10
16116;DHT22;8162;47.104;15.432;2022-08-20T00:05:50;20.10;90.00
16116;DHT22;8162;47.104;15.432;2022-08-20T00:08:19;20.10;90.20
16116;DHT22;8162;47.104;15.432;2022-08-20T00:10:47;20.00;90.30
16116;DHT22;8162;47.104;15.432;2022-08-20T00:13:16;20.00;90.20
16116;DHT22;8162;47.104;15.432;2022-08-20T00:15:42;20.00;90.10
16116;DHT22;8162;47.104;15.432;2022-08-20T00:18:08;20.00;90.10
16116;DHT22;8162;47.104;15.432;2022-08-20T00:20:38;20.00;90.10
16116;DHT22;8162;47.104;15.432;2022-08-20T00:23:04;19.90;90.10
16116;DHT22;8162;47.104;15.432;2022-08-20T00:25:30;19.90;90.20
16116;DHT22;8162;47.104;15.432;2022-08-20T00:27:57;19.90;90.50
16116;DHT22;8162;47.104;15.432;2022-08-20T00:30:25;20.00;90.30
16116;DHT22;8162;47.104;15.432;2022-08-20T00:32:57;19.90;90.10
16116;DHT22;8162;47.104;15.432;2022-08-20T00:35:26;19.90;90.20
16116;DHT22;8162;47.104;15.432;2022-08-20T00:37:53;19.80;90.10
16116;DHT22;8162;47.104;15.432;2022-08-20T00:40:22;19.80;90.10
16116;DHT22;8162;47.104;15.432;2022-08-20T00:42:53;19.80;90.10
16116;DHT22;8162;47.104;15.432;2022-08-20T00:45:21;19.80;90.50
16116;DHT22;8162;47.104;15.432;2022-08-20T00:47:47;19.80;90.30
16116;DHT22;8162;47.104;15.432;2022-08-20T00:50:19;19.80;90.30
16116;DHT22;8162;47.104;15.432;2022-08-20T00:52:48;19.80;90.10
16116;DHT22;8162;47.104;15.432;2022-08-20T00:55:16;19.80;89.90
16116;DHT22;8162;47.104;15.432;2022-08-20T00:57:45;19.80;90.00
16116;DHT22;8162;47.104;15.432;2022-08-20T01:00:16;19.80;90.10
16116;DHT22;8162;47.104;15.432;2022-08-20T01:02:43;19.80;90.10
16116;DHT22;8162;47.104;15.432;2022-08-20T01:05:09;19.80;89.90
16116;DHT22;8162;47.104;15.432;2022-08-20T01:07:36;19.80;89.60
16116;DHT22;8162;47.104;15.432;2022-08-20T01:10:10;19.70;89.50
16116;DHT22;8162;47.104;15.432;2022-08-20T01:12:38;19.70;89.70
16116;DHT22;8162;47.104;15.432;2022-08-20T01:15:05;19.70;89.60
16116;DHT22;8162;47.104;15.432;2022-08-20T01:17:34;19.70;89.50
16116;DHT22;8162;47.104;15.432;2022-08-20T01:20:14;19.70;89.30
16116;DHT22;8162;47.104;15.432;2022-08-20T01:31:14;19.60;89.20
16116;DHT22;8162;47.104;15.432;2022-08-20T01:33:40;19.50;89.20
16116;DHT22;8162;47.104;15.432;2022-08-20T01:36:07;19.60;89.30
16116;DHT22;8162;47.104;15.432;2022-08-20T01:38:33;19.50;89.30
16116;DHT22;8162;47.104;15.432;2022-08-20T01:41:22;19.50;89.30
16116;DHT22;8162;47.104;15.432;2022-08-20T01:43:52;19.50;89.20
16116;DHT22;8162;47.104;15.432;2022-08-20T01:46:24;19.40;89.10
16116;DHT22;8162;47.104;15.432;2022-08-20T01:48:52;19.30;89.00
16116;DHT22;8162;47.104;15.432;2022-08-20T01:51:21;19.30;89.30
16116;DHT22;8162;47.104;15.432;2022-08-20T01:53:50;19.30;89.30
16116;DHT22;8162;47.104;15.432;2022-08-20T01:56:20;19.30;89.30
16116;DHT22;8162;47.104;15.432;2022-08-20T01:58:48;19.30;89.10
16116;DHT22;8162;47.104;15.432;2022-08-20T02:01:38;19.30;89.00
16116;DHT22;8162;47.104;15.432;2022-08-20T02:04:07;19.20;88.90
16116;DHT22;8162;47.104;15.432;2022-08-20T02:06:36;19.20;88.90
16116;DHT22;8162;47.104;15.432;2022-08-20T02:09:03;19.10;88.90
16116;DHT22;8162;47.104;15.432;2022-08-20T02:11:31;19.10;89.10
16116;DHT22;8162;47.104;15.432;2022-08-20T02:13:58;19.10;88.90
16116;DHT22;8162;47.104;15.432;2022-08-20T02:16:30;19.00;89.00
16116;DHT22;8162;47.104;15.432;2022-08-20T02:19:00;19.00;89.00
16116;DHT22;8162;47.104;15.432;2022-08-20T02:21:30;19.10;89.20
16116;DHT22;8162;47.104;15.432;2022-08-20T02:23:57;19.00;89.10
16116;DHT22;8162;47.104;15.432;2022-08-20T02:26:24;19.00;89.10
16116;DHT22;8162;47.104;15.432;2022-08-20T02:28:51;19.00;89.30
16116;DHT22;8162;47.104;15.432;2022-08-20T02:31:19;19.00;89.10
16116;DHT22;8162;47.104;15.432;2022-08-20T02:33:45;19.00;89.00
16116;DHT22;8162;47.104;15.432;2022-08-20T02:36:12;19.00;89.00
16116;DHT22;8162;47.104;15.432;2022-08-20T02:38:39;18.90;89.00
16116;DHT22;8162;47.104;15.432;2022-08-20T02:41:06;18.90;88.70
16116;DHT22;8162;47.104;15.432;2022-08-20T02:43:33;18.90;88.70
16116;DHT22;8162;47.104;15.432;2022-08-20T02:45:59;18.90;88.70
16116;DHT22;8162;47.104;15.432;2022-08-20T02:48:25;18.80;88.90
16116;DHT22;8162;47.104;15.432;2022-08-20T02:51:00;18.90;88.80
16116;DHT22;8162;47.104;15.432;2022-08-20T02:53:28;18.90;88.80
16116;DHT22;8162;47.104;15.432;2022-08-20T02:55:55;18.80;88.60
16116;DHT22;8162;47.104;15.432;2022-08-20T02:58:21;18.90;88.80
16116;DHT22;8162;47.104;15.432;2022-08-20T03:00:47;18.90;88.60
16116;DHT22;8162;47.104;15.432;2022-08-20T03:03:14;18.80;88.50
16116;DHT22;8162;47.104;15.432;2022-08-20T03:05:42;18.80;88.80
16116;DHT22;8162;47.104;15.432;2022-08-20T03:08:09;18.80;88.90
16116;DHT22;8162;47.104;15.432;2022-08-20T03:10:37;18.80;88.70
16116;DHT22;8162;47.104;15.432;2022-08-20T03:13:04;18.80;88.60
16116;DHT22;8162;47.104;15.432;2022-08-20T03:15:31;18.70;88.80
16116;DHT22;8162;47.104;15.432;2022-08-20T03:17:58;18.70;88.70
16116;DHT22;8162;47.104;15.432;2022-08-20T03:20:25;18.70;88.60
16116;DHT22;8162;47.104;15.432;2022-08-20T03:22:51;18.70;88.40
16116;DHT22;8162;47.104;15.432;2022-08-20T03:25:18;18.70;88.50
16116;DHT22;8162;47.104;15.432;2022-08-20T03:27:44;18.60;88.80
16116;DHT22;8162;47.104;15.432;2022-08-20T03:30:13;18.70;88.40
16116;DHT22;8162;47.104;15.432;2022-08-20T03:32:39;18.60;88.40
16116;DHT22;8162;47.104;15.432;2022-08-20T03:35:07;18.60;88.40
16116;DHT22;8162;47.104;15.432;2022-08-20T03:37:35;18.60;88.50
16116;DHT22;8162;47.104;15.432;2022-08-20T03:40:00;18.50;88.40
16116;DHT22;8162;47.104;15.432;2022-08-20T03:42:27;18.50;88.50
16116;DHT22;8162;47.104;15.432;2022-08-20T03:44:53;18.50;88.40
16116;DHT22;8162;47.104;15.432;2022-08-20T03:47:19;18.50;88.50
16116;DHT22;8162;47.104;15.432;2022-08-20T03:49:45;18.40;88.60
16116;DHT22;8162;47.104;15.432;2022-08-20T03:52:11;18.40;88.60
16116;DHT22;8162;47.104;15.432;2022-08-20T03:54:36;18.40;88.70
16116;DHT22;8162;47.104;15.432;2022-08-20T03:57:03;18.40;88.60
16116;DHT22;8162;47.104;15.432;2022-08-20T03:59:29;18.50;88.80
16116;DHT22;8162;47.104;15.432;2022-08-20T04:01:58;18.50;89.00
16116;DHT22;8162;47.104;15.432;2022-08-20T04:04:24;18.50;88.80
16116;DHT22;8162;47.104;15.432;2022-08-20T04:06:50;18.50;88.70
16116;DHT22;8162;47.104;15.432;2022-08-20T04:09:16;18.50;88.60
16116;DHT22;8162;47.104;15.432;2022-08-20T04:11:42;18.50;88.90
16116;DHT22;8162;47.104;15.432;2022-08-20T04:14:09;18.50;88.50
16116;DHT22;8162;47.104;15.432;2022-08-20T04:16:35;18.50;88.30
16116;DHT22;8162;47.104;15.432;2022-08-20T04:19:02;18.50;88.30
16116;DHT22;8162;47.104;15.432;2022-08-20T04:21:32;18.50;88.50
16116;DHT22;8162;47.104;15.432;2022-08-20T04:23:58;18.50;88.40
16116;DHT22;8162;47.104;15.432;2022-08-20T04:26:24;18.40;88.40
16116;DHT22;8162;47.104;15.432;2022-08-20T04:28:50;18.40;88.50
16116;DHT22;8162;47.104;15.432;2022-08-20T04:31:17;18.40;88.50
16116;DHT22;8162;47.104;15.432;2022-08-20T04:33:43;18.40;88.50
16116;DHT22;8162;47.104;15.432;2022-08-20T04:36:09;18.40;88.40
16116;DHT22;8162;47.104;15.432;2022-08-20T04:38:35;18.40;88.50
16116;DHT22;8162;47.104;15.432;2022-08-20T04:41:00;18.40;88.40
16116;DHT22;8162;47.104;15.432;2022-08-20T04:43:34;18.40;88.70
16116;DHT22;8162;47.104;15.432;2022-08-20T04:46:03;18.40;88.60
16116;DHT22;8162;47.104;15.432;2022-08-20T04:48:31;18.40;88.70
16116;DHT22;8162;47.104;15.432;2022-08-20T04:50:57;18.40;88.60
16116;DHT22;8162;47.104;15.432;2022-08-20T04:53:25;18.40;88.50
16116;DHT22;8162;47.104;15.432;2022-08-20T04:55:54;18.40;88.50
16116;DHT22;8162;47.104;15.432;2022-08-20T04:58:32;18.40;88.50
16116;DHT22;8162;47.104;15.432;2022-08-20T05:01:04;18.40;88.50
16116;DHT22;8162;47.104;15.432;2022-08-20T05:03:31;18.50;88.60
16116;DHT22;8162;47.104;15.432;2022-08-20T05:05:57;18.40;88.50
16116;DHT22;8162;47.104;15.432;2022-08-20T05:08:24;18.40;88.70
16116;DHT22;8162;47.104;15.432;2022-08-20T05:10:51;18.40;88.70
16116;DHT22;8162;47.104;15.432;2022-08-20T05:13:17;18.40;88.70
16116;DHT22;8162;47.104;15.432;2022-08-20T05:15:43;18.50;89.00
16116;DHT22;8162;47.104;15.432;2022-08-20T05:18:10;18.50;88.80
16116;DHT22;8162;47.104;15.432;2022-08-20T05:20:39;18.50;88.70
16116;DHT22;8162;47.104;15.432;2022-08-20T05:23:07;18.50;88.90
16116;DHT22;8162;47.104;15.432;2022-08-20T05:25:33;18.60;88.80
16116;DHT22;8162;47.104;15.432;2022-08-20T05:28:02;18.60;88.90
16116;DHT22;8162;47.104;15.432;2022-08-20T05:30:30;18.60;88.90
16116;DHT22;8162;47.104;15.432;2022-08-20T05:32:58;18.60;88.60
16116;DHT22;8162;47.104;15.432;2022-08-20T05:35:25;18.60;88.80
16116;DHT22;8162;47.104;15.432;2022-08-20T05:37:52;18.70;89.00
16116;DHT22;8162;47.104;15.432;2022-08-20T05:40:19;18.70;88.90
16116;DHT22;8162;47.104;15.432;2022-08-20T05:42:46;18.70;88.70
16116;DHT22;8162;47.104;15.432;2022-08-20T05:45:11;18.70;88.60
16116;DHT22;8162;47.104;15.432;2022-08-20T05:47:39;18.70;88.90
16116;DHT22;8162;47.104;15.432;2022-08-20T05:50:06;18.70;88.60
16116;DHT22;8162;47.104;15.432;2022-08-20T05:52:32;18.70;88.60
16116;DHT22;8162;47.104;15.432;2022-08-20T05:54:57;18.70;88.70
16116;DHT22;8162;47.104;15.432;2022-08-20T05:57:23;18.70;88.60
16116;DHT22;8162;47.104;15.432;2022-08-20T05:59:49;18.70;88.70
16116;DHT22;8162;47.104;15.432;2022-08-20T06:02:14;18.70;88.70
16116;DHT22;8162;47.104;15.432;2022-08-20T06:04:58;18.80;88.70
16116;DHT22;8162;47.104;15.432;2022-08-20T06:07:24;18.80;88.80
16116;DHT22;8162;47.104;15.432;2022-08-20T06:09:50;18.80;88.90
16116;DHT22;8162;47.104;15.432;2022-08-20T06:12:16;18.80;88.90
16116;DHT22;8162;47.104;15.432;2022-08-20T06:14:42;18.80;88.80
16116;DHT22;8162;47.104;15.432;2022-08-20T06:17:11;18.90;88.70
16116;DHT22;8162;47.104;15.432;2022-08-20T06:19:38;18.90;88.60
16116;DHT22;8162;47.104;15.432;2022-08-20T06:22:04;18.90;88.50
16116;DHT22;8162;47.104;15.432;2022-08-20T06:24:31;19.00;88.50
16116;DHT22;8162;47.104;15.432;2022-08-20T06:26:59;19.00;88.40
16116;DHT22;8162;47.104;15.432;2022-08-20T06:29:26;19.00;88.40
16116;DHT22;8162;47.104;15.432;2022-08-20T06:31:52;19.00;88.60
16116;DHT22;8162;47.104;15.432;2022-08-20T06:34:18;19.00;88.50
16116;DHT22;8162;47.104;15.432;2022-08-20T06:36:44;19.10;88.60
16116;DHT22;8162;47.104;15.432;2022-08-20T06:39:13;19.10;88.20
16116;DHT22;8162;47.104;15.432;2022-08-20T06:41:40;19.10;88.30
16116;DHT22;8162;47.104;15.432;2022-08-20T06:44:06;19.10;88.20
16116;DHT22;8162;47.104;15.432;2022-08-20T06:46:36;19.20;88.30
16116;DHT22;8162;47.104;15.432;2022-08-20T06:49:03;19.20;88.30
16116;DHT22;8162;47.104;15.432;2022-08-20T06:51:29;19.20;88.40
16116;DHT22;8162;47.104;15.432;2022-08-20T06:53:56;19.20;88.40
16116;DHT22;8162;47.104;15.432;2022-08-20T06:56:22;19.20;88.60
16116;DHT22;8162;47.104;15.432;2022-08-20T06:58:47;19.20;88.50
16116;DHT22;8162;47.104;15.432;2022-08-20T07:01:14;19.30;88.40
16116;DHT22;8162;47.104;15.432;2022-08-20T07:03:42;19.30;88.40
16116;DHT22;8162;47.104;15.432;2022-08-20T07:06:08;19.30;88.40
16116;DHT22;8162;47.104;15.432;2022-08-20T07:08:34;19.30;88.50
16116;DHT22;8162;47.104;15.432;2022-08-20T07:11:00;19.30;88.50
16116;DHT22;8162;47.104;15.432;2022-08-20T07:13:26;19.30;88.50
16116;DHT22;8162;47.104;15.432;2022-08-20T07:15:53;19.30;88.60
16116;DHT22;8162;47.104;15.432;2022-08-20T07:18:19;19.50;88.80
16116;DHT22;8162;47.104;15.432;2022-08-20T07:20:45;19.40;88.80
16116;DHT22;8162;47.104;15.432;2022-08-20T07:23:11;19.50;88.70
16116;DHT22;8162;47.104;15.432;2022-08-20T07:25:39;19.50;88.70
16116;DHT22;8162;47.104;15.432;2022-08-20T07:28:21;19.50;88.60
16116;DHT22;8162;47.104;15.432;2022-08-20T07:30:48;19.60;88.50
16116;DHT22;8162;47.104;15.432;2022-08-20T07:33:33;19.60;88.20
16116;DHT22;8162;47.104;15.432;2022-08-20T07:36:00;19.60;87.90
16116;DHT22;8162;47.104;15.432;2022-08-20T07:38:27;19.60;87.90
16116;DHT22;8162;47.104;15.432;2022-08-20T07:40:58;19.70;88.00
16116;DHT22;8162;47.104;15.432;2022-08-20T07:43:24;19.70;87.70
16116;DHT22;8162;47.104;15.432;2022-08-20T07:45:52;19.70;87.70
16116;DHT22;8162;47.104;15.432;2022-08-20T07:48:21;19.80;87.80
16116;DHT22;8162;47.104;15.432;2022-08-20T07:50:46;19.80;87.90
16116;DHT22;8162;47.104;15.432;2022-08-20T07:53:15;19.80;87.80
16116;DHT22;8162;47.104;15.432;2022-08-20T07:55:41;19.80;83.80
16116;DHT22;8162;47.104;15.432;2022-08-20T07:58:12;19.90;83.00
16116;DHT22;8162;47.104;15.432;2022-08-20T08:00:39;19.90;84.20
16116;DHT22;8162;47.104;15.432;2022-08-20T08:03:05;19.90;84.80
16116;DHT22;8162;47.104;15.432;2022-08-20T08:05:33;19.90;85.20
16116;DHT22;8162;47.104;15.432;2022-08-20T08:08:00;20.00;85.50
16116;DHT22;8162;47.104;15.432;2022-08-20T08:10:26;20.00;85.90
16116;DHT22;8162;47.104;15.432;2022-08-20T08:12:57;20.10;86.10
16116;DHT22;8162;47.104;15.432;2022-08-20T08:15:31;20.20;86.30
16116;DHT22;8162;47.104;15.432;2022-08-20T08:18:01;20.10;86.10
16116;DHT22;8162;47.104;15.432;2022-08-20T08:20:28;20.20;86.00
16116;DHT22;8162;47.104;15.432;2022-08-20T08:22:54;20.20;86.10
16116;DHT22;8162;47.104;15.432;2022-08-20T08:25:20;20.20;81.30
16116;DHT22;8162;47.104;15.432;2022-08-20T08:27:45;20.30;83.00
16116;DHT22;8162;47.104;15.432;2022-08-20T08:30:13;20.30;82.70
16116;DHT22;8162;47.104;15.432;2022-08-20T08:32:39;20.40;81.10
16116;DHT22;8162;47.104;15.432;2022-08-20T08:35:25;20.40;82.10
16116;DHT22;8162;47.104;15.432;2022-08-20T08:37:51;20.70;76.60
16116;DHT22;8162;47.104;15.432;2022-08-20T08:40:19;20.80;77.60
16116;DHT22;8162;47.104;15.432;2022-08-20T08:42:50;20.80;74.50
16116;DHT22;8162;47.104;15.432;2022-08-20T08:45:23;20.90;74.70
16116;DHT22;8162;47.104;15.432;2022-08-20T08:47:51;21.00;74.70
16116;DHT22;8162;47.104;15.432;2022-08-20T08:50:29;21.30;72.20
16116;DHT22;8162;47.104;15.432;2022-08-20T08:52:58;21.50;70.80
16116;DHT22;8162;47.104;15.432;2022-08-20T08:55:26;21.50;70.10
16116;DHT22;8162;47.104;15.432;2022-08-20T08:57:56;21.60;71.20
16116;DHT22;8162;47.104;15.432;2022-08-20T09:00:24;21.60;69.50
16116;DHT22;8162;47.104;15.432;2022-08-20T09:03:00;21.70;73.20
16116;DHT22;8162;47.104;15.432;2022-08-20T09:05:38;21.80;71.10
16116;DHT22;8162;47.104;15.432;2022-08-20T09:08:07;21.90;69.90
16116;DHT22;8162;47.104;15.432;2022-08-20T09:10:33;21.90;69.70
16116;DHT22;8162;47.104;15.432;2022-08-20T09:12:59;22.10;64.70
16116;DHT22;8162;47.104;15.432;2022-08-20T09:15:26;22.30;65.00
16116;DHT22;8162;47.104;15.432;2022-08-20T09:17:51;22.30;67.20
16116;DHT22;8162;47.104;15.432;2022-08-20T09:20:17;22.30;68.20
16116;DHT22;8162;47.104;15.432;2022-08-20T09:22:43;22.30;69.90
16116;DHT22;8162;47.104;15.432;2022-08-20T09:25:09;22.40;69.40
16116;DHT22;8162;47.104;15.432;2022-08-20T09:27:35;22.50;68.70
16116;DHT22;8162;47.104;15.432;2022-08-20T09:30:00;22.50;69.80
16116;DHT22;8162;47.104;15.432;2022-08-20T09:32:26;22.50;68.20
16116;DHT22;8162;47.104;15.432;2022-08-20T09:34:53;22.60;67.60
16116;DHT22;8162;47.104;15.432;2022-08-20T09:37:25;22.60;64.60
16116;DHT22;8162;47.104;15.432;2022-08-20T09:39:51;22.60;66.30
16116;DHT22;8162;47.104;15.432;2022-08-20T09:42:22;22.70;66.10
16116;DHT22;8162;47.104;15.432;2022-08-20T09:44:48;22.60;68.00
16116;DHT22;8162;47.104;15.432;2022-08-20T09:47:14;22.80;61.80
16116;DHT22;8162;47.104;15.432;2022-08-20T09:49:42;22.80;61.50
16116;DHT22;8162;47.104;15.432;2022-08-20T09:52:10;22.90;60.90
16116;DHT22;8162;47.104;15.432;2022-08-20T09:54:36;22.90;62.50
16116;DHT22;8162;47.104;15.432;2022-08-20T09:57:05;22.90;61.60
16116;DHT22;8162;47.104;15.432;2022-08-20T09:59:33;22.80;60.90
16116;DHT22;8162;47.104;15.432;2022-08-20T10:01:59;23.00;59.90
16116;DHT22;8162;47.104;15.432;2022-08-20T10:04:25;23.10;61.40
16116;DHT22;8162;47.104;15.432;2022-08-20T10:06:51;23.10;60.40
16116;DHT22;8162;47.104;15.432;2022-08-20T10:09:17;23.10;61.10
16116;DHT22;8162;47.104;15.432;2022-08-20T10:11:42;23.30;59.50
16116;DHT22;8162;47.104;15.432;2022-08-20T10:14:08;23.40;58.30
16116;DHT22;8162;47.104;15.432;2022-08-20T10:16:34;23.70;56.80
16116;DHT22;8162;47.104;15.432;2022-08-20T10:19:01;23.60;57.70
16116;DHT22;8162;47.104;15.432;2022-08-20T10:21:28;23.70;57.40
16116;DHT22;8162;47.104;15.432;2022-08-20T10:23:54;23.60;57.70
16116;DHT22;8162;47.104;15.432;2022-08-20T10:26:20;23.70;57.50
16116;DHT22;8162;47.104;15.432;2022-08-20T10:28:45;23.60;59.60
16116;DHT22;8162;47.104;15.432;2022-08-20T10:31:11;23.60;57.60
16116;DHT22;8162;47.104;15.432;2022-08-20T10:33:39;23.50;59.50
16116;DHT22;8162;47.104;15.432;2022-08-20T10:36:13;23.40;59.90
16116;DHT22;8162;47.104;15.432;2022-08-20T10:38:40;23.30;60.90
16116;DHT22;8162;47.104;15.432;2022-08-20T10:41:06;23.20;60.00
16116;DHT22;8162;47.104;15.432;2022-08-20T10:43:32;23.20;60.00
16116;DHT22;8162;47.104;15.432;2022-08-20T10:45:58;23.20;61.20
16116;DHT22;8162;47.104;15.432;2022-08-20T10:48:23;23.20;62.10
16116;DHT22;8162;47.104;15.432;2022-08-20T10:50:49;23.10;61.80
16116;DHT22;8162;47.104;15.432;2022-08-20T10:53:15;23.20;62.10
16116;DHT22;8162;47.104;15.432;2022-08-20T10:55:41;23.10;62.90
16116;DHT22;8162;47.104;15.432;2022-08-20T10:58:07;23.10;63.10
16116;DHT22;8162;47.104;15.432;2022-08-20T11:00:34;23.10;64.10
16116;DHT22;8162;47.104;15.432;2022-08-20T11:03:01;23.10;63.80
16116;DHT22;8162;47.104;15.432;2022-08-20T11:05:27;23.10;63.40
16116;DHT22;8162;47.104;15.432;2022-08-20T11:07:53;23.10;63.80
16116;DHT22;8162;47.104;15.432;2022-08-20T11:10:26;23.10;64.00
16116;DHT22;8162;47.104;15.432;2022-08-20T11:12:52;23.10;62.20
16116;DHT22;8162;47.104;15.432;2022-08-20T11:15:18;23.10;63.00
16116;DHT22;8162;47.104;15.432;2022-08-20T11:17:44;23.10;64.10
16116;DHT22;8162;47.104;15.432;2022-08-20T11:20:12;23.10;62.80
16116;DHT22;8162;47.104;15.432;2022-08-20T11:22:38;23.10;63.00
16116;DHT22;8162;47.104;15.432;2022-08-20T11:25:05;23.10;64.00
16116;DHT22;8162;47.104;15.432;2022-08-20T11:27:34;23.10;61.00
16116;DHT22;8162;47.104;15.432;2022-08-20T11:30:00;23.10;61.70
16116;DHT22;8162;47.104;15.432;2022-08-20T11:32:26;23.10;60.20
16116;DHT22;8162;47.104;15.432;2022-08-20T11:34:52;23.10;60.30
16116;DHT22;8162;47.104;15.432;2022-08-20T11:37:20;23.10;61.90
16116;DHT22;8162;47.104;15.432;2022-08-20T11:39:46;23.10;59.30
16116;DHT22;8162;47.104;15.432;2022-08-20T11:42:12;23.10;60.60
16116;DHT22;8162;47.104;15.432;2022-08-20T11:44:38;23.00;61.10
16116;DHT22;8162;47.104;15.432;2022-08-20T11:47:05;23.00;61.00
16116;DHT22;8162;47.104;15.432;2022-08-20T11:49:32;23.00;59.50
16116;DHT22;8162;47.104;15.432;2022-08-20T11:51:59;23.00;58.90
16116;DHT22;8162;47.104;15.432;2022-08-20T11:54:25;23.00;59.70
16116;DHT22;8162;47.104;15.432;2022-08-20T11:56:54;23.00;60.90
16116;DHT22;8162;47.104;15.432;2022-08-20T11:59:25;23.00;61.10
16116;DHT22;8162;47.104;15.432;2022-08-20T12:01:52;23.00;62.40
16116;DHT22;8162;47.104;15.432;2022-08-20T12:04:22;23.00;62.80
16116;DHT22;8162;47.104;15.432;2022-08-20T12:06:47;23.00;61.10
16116;DHT22;8162;47.104;15.432;2022-08-20T12:09:13;22.90;63.10
16116;DHT22;8162;47.104;15.432;2022-08-20T12:11:39;22.90;64.40
16116;DHT22;8162;47.104;15.432;2022-08-20T12:14:04;22.90;64.80
16116;DHT22;8162;47.104;15.432;2022-08-20T12:16:30;22.90;65.70
16116;DHT22;8162;47.104;15.432;2022-08-20T12:18:56;22.90;66.40
16116;DHT22;8162;47.104;15.432;2022-08-20T12:21:21;22.90;67.20
16116;DHT22;8162;47.104;15.432;2022-08-20T12:23:47;22.90;67.50
16116;DHT22;8162;47.104;15.432;2022-08-20T12:26:13;22.80;68.00
16116;DHT22;8162;47.104;15.432;2022-08-20T12:28:40;22.90;66.40
16116;DHT22;8162;47.104;15.432;2022-08-20T12:31:06;22.80;63.30
16116;DHT22;8162;47.104;15.432;2022-08-20T12:33:32;22.70;60.50
16116;DHT22;8162;47.104;15.432;2022-08-20T12:35:58;22.70;59.60
16116;DHT22;8162;47.104;15.432;2022-08-20T12:38:23;22.70;57.30
16116;DHT22;8162;47.104;15.432;2022-08-20T12:40:49;22.80;59.00
16116;DHT22;8162;47.104;15.432;2022-08-20T12:43:15;22.70;59.30
16116;DHT22;8162;47.104;15.432;2022-08-20T12:45:40;22.70;58.20
16116;DHT22;8162;47.104;15.432;2022-08-20T12:48:10;22.80;59.10
16116;DHT22;8162;47.104;15.432;2022-08-20T12:50:37;22.80;59.00
16116;DHT22;8162;47.104;15.432;2022-08-20T12:53:03;22.80;59.50
16116;DHT22;8162;47.104;15.432;2022-08-20T12:55:30;22.80;61.00
16116;DHT22;8162;47.104;15.432;2022-08-20T12:57:58;22.80;59.40
16116;DHT22;8162;47.104;15.432;2022-08-20T13:00:28;22.80;60.80
16116;DHT22;8162;47.104;15.432;2022-08-20T13:02:56;22.70;61.10
16116;DHT22;8162;47.104;15.432;2022-08-20T13:05:22;22.70;62.30
16116;DHT22;8162;47.104;15.432;2022-08-20T13:07:48;22.70;62.70
16116;DHT22;8162;47.104;15.432;2022-08-20T13:10:17;22.70;59.70
16116;DHT22;8162;47.104;15.432;2022-08-20T13:12:43;22.70;60.30
16116;DHT22;8162;47.104;15.432;2022-08-20T13:15:09;22.70;61.20
16116;DHT22;8162;47.104;15.432;2022-08-20T13:17:35;22.70;60.60
16116;DHT22;8162;47.104;15.432;2022-08-20T13:20:01;22.70;58.70
16116;DHT22;8162;47.104;15.432;2022-08-20T13:22:27;22.70;58.40
16116;DHT22;8162;47.104;15.432;2022-08-20T13:24:52;22.80;57.20
16116;DHT22;8162;47.104;15.432;2022-08-20T13:27:18;22.90;55.70
16116;DHT22;8162;47.104;15.432;2022-08-20T13:29:54;23.00;57.90
16116;DHT22;8162;47.104;15.432;2022-08-20T13:32:21;23.00;58.80
16116;DHT22;8162;47.104;15.432;2022-08-20T13:34:48;23.10;58.00
16116;DHT22;8162;47.104;15.432;2022-08-20T13:37:17;23.20;57.60
16116;DHT22;8162;47.104;15.432;2022-08-20T13:39:43;23.20;54.80
16116;DHT22;8162;47.104;15.432;2022-08-20T13:42:09;23.20;53.40
16116;DHT22;8162;47.104;15.432;2022-08-20T13:44:35;23.30;53.40
16116;DHT22;8162;47.104;15.432;2022-08-20T13:47:20;23.30;54.30
16116;DHT22;8162;47.104;15.432;2022-08-20T13:49:47;23.30;55.30
16116;DHT22;8162;47.104;15.432;2022-08-20T13:52:13;23.30;54.30
16116;DHT22;8162;47.104;15.432;2022-08-20T13:54:39;23.30;53.20
16116;DHT22;8162;47.104;15.432;2022-08-20T13:57:11;23.30;54.40
16116;DHT22;8162;47.104;15.432;2022-08-20T13:59:45;23.30;54.50
16116;DHT22;8162;47.104;15.432;2022-08-20T14:02:12;23.30;53.00
16116;DHT22;8162;47.104;15.432;2022-08-20T14:04:38;23.40;53.00
16116;DHT22;8162;47.104;15.432;2022-08-20T14:07:11;23.40;52.20
16116;DHT22;8162;47.104;15.432;2022-08-20T14:09:39;23.40;53.90
16116;DHT22;8162;47.104;15.432;2022-08-20T14:12:07;23.40;52.80
16116;DHT22;8162;47.104;15.432;2022-08-20T14:14:32;23.50;53.90
16116;DHT22;8162;47.104;15.432;2022-08-20T14:16:58;23.50;52.30
16116;DHT22;8162;47.104;15.432;2022-08-20T14:19:24;23.50;53.70
16116;DHT22;8162;47.104;15.432;2022-08-20T14:21:49;23.50;52.30
16116;DHT22;8162;47.104;15.432;2022-08-20T14:24:15;23.50;53.40
16116;DHT22;8162;47.104;15.432;2022-08-20T14:26:41;23.50;51.80
16116;DHT22;8162;47.104;15.432;2022-08-20T14:29:06;23.50;52.30
16116;DHT22;8162;47.104;15.432;2022-08-20T14:31:32;23.50;53.20
16116;DHT22;8162;47.104;15.432;2022-08-20T14:33:57;23.60;52.90
16116;DHT22;8162;47.104;15.432;2022-08-20T14:36:23;23.60;52.80
16116;DHT22;8162;47.104;15.432;2022-08-20T14:38:48;23.60;53.40
16116;DHT22;8162;47.104;15.432;2022-08-20T14:41:14;23.60;54.00
16116;DHT22;8162;47.104;15.432;2022-08-20T14:43:40;23.60;53.40
16116;DHT22;8162;47.104;15.432;2022-08-20T14:46:06;23.70;53.60
16116;DHT22;8162;47.104;15.432;2022-08-20T14:48:31;23.60;52.80
16116;DHT22;8162;47.104;15.432;2022-08-20T14:50:57;23.60;52.90
16116;DHT22;8162;47.104;15.432;2022-08-20T14:53:23;23.60;52.90
16116;DHT22;8162;47.104;15.432;2022-08-20T14:55:49;23.60;54.00
16116;DHT22;8162;47.104;15.432;2022-08-20T14:58:15;23.50;52.20
16116;DHT22;8162;47.104;15.432;2022-08-20T15:00:42;23.50;52.70
16116;DHT22;8162;47.104;15.432;2022-08-20T15:03:07;23.50;52.80
16116;DHT22;8162;47.104;15.432;2022-08-20T15:05:34;23.40;51.60
16116;DHT22;8162;47.104;15.432;2022-08-20T15:08:02;23.40;53.70
16116;DHT22;8162;47.104;15.432;2022-08-20T15:10:30;23.30;53.10
16116;DHT22;8162;47.104;15.432;2022-08-20T15:12:57;23.30;53.90
16116;DHT22;8162;47.104;15.432;2022-08-20T15:15:23;23.30;52.50
16116;DHT22;8162;47.104;15.432;2022-08-20T15:17:52;23.20;53.10
16116;DHT22;8162;47.104;15.432;2022-08-20T15:20:21;23.20;52.30
16116;DHT22;8162;47.104;15.432;2022-08-20T15:22:48;23.20;52.10
16116;DHT22;8162;47.104;15.432;2022-08-20T15:25:17;23.20;53.70
16116;DHT22;8162;47.104;15.432;2022-08-20T15:27:44;23.20;53.90
16116;DHT22;8162;47.104;15.432;2022-08-20T15:30:14;23.10;52.30
16116;DHT22;8162;47.104;15.432;2022-08-20T15:32:40;23.10;53.60
16116;DHT22;8162;47.104;15.432;2022-08-20T15:35:05;23.10;53.50
16116;DHT22;8162;47.104;15.432;2022-08-20T15:37:39;23.10;53.70
16116;DHT22;8162;47.104;15.432;2022-08-20T15:40:05;23.10;54.70